• Join FlightAware (Why Join?)
  • Login
  • US Flag 
10:11PM EDT


 

Airport Tracker/Info


-or-


 

Live Flight TrackerFlight Track Log ✈ TCF3538 ✈ 29-Apr-2013 ✈ KATL - KDEN

Flight Track Log - Related Links

Times and Time Zones

All times are in EDT time to prevent confusion due to time zone crossing. See the TCF3538 flight status page for this flight to view local times or setup timezone preferences in your user account.

Time Position Orientation Groundspeed Altitude Reporting Facility
EDT Latitude Longitude Course Direction KTS MPH feet Rate Location/Type
07:52AM 33.6519 -84.3681 270° West 426 490 2,400  Level Atlanta Center
07:53AM 33.6792 -84.3008 64° Northeast 311 358 4,000 1,920 Climbing Atlanta Center
07:54AM 33.7667 -84.2833 North 283 326 6,700 2,160 Climbing Atlanta TRACON
07:55AM 33.8001 -84.4708 270° West  Level FlightAware Approximate
07:56AM 33.8000 -84.6009 270° West  Level FlightAware Approximate
07:56AM 33.8125 -84.3989 296° West 278 320 10,500  Level Atlanta Center
07:57AM 33.8001 -84.7309 270° West  Level FlightAware Approximate
07:57AM 33.8100 -84.4989 268° West 285 328 12,300  Level Atlanta Center
07:58AM 33.8000 -84.8609 270° West  Level FlightAware Approximate
07:58AM 33.8097 -84.6164 270° West 313 360 14,100  Level Atlanta Center
07:59AM 33.8111 -84.7139 271° West 319 367 15,900 1,320 Climbing Atlanta Center
08:00AM 33.8083 -84.8264 268° West 332 382 16,800 900 Climbing Atlanta Center
08:01AM 33.8178 -84.9714 275° West 379 436 17,700 900 Climbing Atlanta Center
08:02AM 33.8378 -85.1017 281° West 397 457 18,700 1,020 Climbing Atlanta Center
08:03AM 33.8594 -85.2344 281° West 409 471 19,800 1,020 Climbing Atlanta Center
08:04AM 33.8789 -85.3750 279° West 409 471 20,800 900 Climbing Atlanta Center
08:05AM 33.8964 -85.4953 280° West 409 471 21,600 780 Climbing Atlanta Center
08:06AM 33.9153 -85.6358 279° West 414 476 22,400 780 Climbing Atlanta Center
08:07AM 33.9364 -85.7789 280° West 425 489 23,200 900 Climbing Atlanta Center
08:08AM 33.9553 -85.9247 279° West 419 482 24,200 900 Climbing Atlanta Center
08:09AM 33.9758 -86.0703 280° West 429 494 25,000 780 Climbing Atlanta Center
08:10AM 34.0111 -86.2089 287° West 429 494 25,800 720 Climbing Atlanta Center
08:11AM 34.0522 -86.3481 290° West 439 505 26,500 840 Climbing Atlanta Center
08:12AM 34.0914 -86.4869 289° West 445 512 27,500 840 Climbing Atlanta Center
08:14AM 34.1639 -86.7475 289° West 457 526 28,900 840 Climbing Memphis Center
08:15AM 34.2014 -86.8864 288° West 452 520 29,900 1,080 Climbing Memphis Center
08:16AM 34.2364 -87.0208 288° West 452 520 31,100 1,200 Climbing Memphis Center
08:17AM 34.2753 -87.1575 289° West 437 503 32,400 1,080 Climbing Memphis Center
08:18AM 34.3119 -87.2869 289° West 425 489 33,300 780 Climbing Memphis Center
08:19AM 34.3486 -87.4214 288° West 418 481 34,000 300 Climbing Memphis Center
08:20AM 34.3853 -87.5611 288° West 426 490 34,000  Level Memphis Center
08:21AM 34.4306 -87.7183 289° West 442 509 34,000  Level Memphis Center
08:22AM 34.4689 -87.8631 288° West 447 514 34,000  Level Memphis Center
08:23AM 34.5053 -88.0133 286° West 453 521 34,000  Level Memphis Center
08:24AM 34.5475 -88.1583 290° West 460 529 34,000  Level Memphis Center
08:25AM 34.5833 -88.2986 287° West 460 529 34,000  Level Memphis Center
08:26AM 34.6233 -88.4467 288° West 460 529 34,000  Level Memphis Center
08:27AM 34.6653 -88.6047 288° West 453 521 34,000  Level Memphis Center
08:28AM 34.7047 -88.7506 288° West 458 527 34,000  Level Memphis Center
08:29AM 34.7422 -88.9014 287° West 458 527 34,000  Level Memphis Center
08:30AM 34.7792 -89.0525 287° West 458 527 34,000  Level Memphis Center
08:31AM 34.8139 -89.1833 288° West 458 527 34,000  Level Memphis Center
08:32AM 34.8528 -89.3347 287° West 458 527 34,000  Level Memphis Center
08:33AM 34.8917 -89.4836 288° West 463 533 34,000  Level Memphis Center
08:34AM 34.9342 -89.6300 290° West 458 527 34,000  Level Memphis Center
08:35AM 34.9789 -89.8097 287° West 478 550 34,000  Level Memphis Center
08:36AM 35.0108 -89.9589 285° West 479 551 34,000  Level Memphis Center
08:37AM 35.0508 -90.0933 290° West 470 541 34,000  Level Memphis Center
08:38AM 35.0969 -90.2378 291° West 465 535 34,000  Level Memphis Center
08:39AM 35.1431 -90.3825 291° West 465 535 34,000  Level Memphis Center
08:40AM 35.1886 -90.5322 290° West 465 535 34,000  Level Memphis Center
08:41AM 35.2364 -90.6775 292° West 465 535 34,000  Level Memphis Center
08:42AM 35.2778 -90.8225 289° West 465 535 34,000  Level Memphis Center
08:43AM 35.3250 -90.9703 291° West 467 537 34,000  Level Memphis Center
08:44AM 35.3742 -91.1286 291° West 467 537 34,000  Level Memphis Center
08:45AM 35.4192 -91.2794 290° West 467 537 34,000  Level Memphis Center
08:46AM 35.4658 -91.4253 291° West 467 537 34,000  Level Memphis Center
08:47AM 35.5083 -91.5711 290° West 467 537 34,000  Level Memphis Center
08:48AM 35.5528 -91.7197 290° West 467 537 34,000  Level Memphis Center
08:49AM 35.5969 -91.8661 290° West 467 537 34,000  Level Memphis Center
08:50AM 35.6450 -92.0175 291° West 467 537 34,000  Level Memphis Center
08:51AM 35.6847 -92.1642 288° West 465 535 34,000  Level Memphis Center
08:52AM 35.7306 -92.3158 290° West 465 535 34,000  Level Memphis Center
08:53AM 35.7761 -92.4628 291° West 465 535 34,000  Level Memphis Center
08:54AM 35.8194 -92.6100 290° West 466 536 34,000  Level Memphis Center
08:55AM 35.8519 -92.7644 285° West 466 536 34,000  Level Memphis Center
08:56AM 35.8969 -92.9144 290° West 466 536 34,000  Level Memphis Center
08:57AM 35.9375 -93.0644 289° West 466 536 34,000  Level Memphis Center
08:58AM 35.9864 -93.2147 292° West 466 536 34,000  Level Memphis Center
08:59AM 36.0264 -93.3650 288° West 466 536 34,000  Level Memphis Center
09:00AM 36.0686 -93.5128 290° West 466 536 34,000  Level Memphis Center
09:01AM 36.1128 -93.6583 291° West 466 536 34,000  Level Memphis Center
09:02AM 36.1525 -93.8092 288° West 466 536 34,000  Level Memphis Center
09:03AM 36.1964 -93.9550 290° West 466 536 34,000  Level Memphis Center
09:04AM 36.2358 -94.1058 288° West 466 536 34,000  Level Memphis Center
09:05AM 36.2664 -94.2592 284° West 466 536 34,000  Level Memphis Center
09:07AM 36.3300 -94.5989 283° West 457 526 34,000  Level Kansas City Center
09:08AM 36.3614 -94.7839 282° West 458 527 34,000  Level Kansas City Center
09:10AM 36.3883 -94.9364 282° West 455 524 34,000  Level Kansas City Center
09:11AM 36.4150 -95.0894 282° West 454 522 34,000  Level Kansas City Center
09:12AM 36.4425 -95.2517 282° West 455 524 34,000  Level Kansas City Center
09:13AM 36.4686 -95.4058 282° West 456 525 34,000  Level Kansas City Center
09:14AM 36.4939 -95.5597 282° West 457 526 34,000  Level Kansas City Center
09:15AM 36.5194 -95.7131 282° West 455 524 34,000  Level Kansas City Center
09:16AM 36.5461 -95.8778 281° West 454 522 34,000  Level Kansas City Center
09:17AM 36.5708 -96.0311 281° West 452 520 34,000  Level Kansas City Center
09:18AM 36.5953 -96.1836 281° West 450 518 34,000  Level Kansas City Center
09:19AM 36.6200 -96.3358 281° West 449 517 34,000  Level Kansas City Center
09:20AM 36.6442 -96.4886 281° West 449 517 34,000  Level Kansas City Center
09:21AM 36.6681 -96.6425 281° West 451 519 34,000  Level Kansas City Center
09:22AM 36.6964 -96.8264 281° West 451 519 34,000  Level Kansas City Center
09:23AM 36.7200 -96.9794 281° West 450 518 34,000  Level Kansas City Center
09:24AM 36.7400 -97.1150 280° West 451 519 34,000  Level Kansas City Center
09:25AM 36.7925 -97.2908 290° West 454 522 34,000  Level Kansas City Center
09:26AM 36.8425 -97.4342 294° West 453 521 34,000  Level Kansas City Center
09:27AM 36.8853 -97.5636 292° West 454 522 34,000  Level Kansas City Center
09:28AM 36.9350 -97.7097 293° West 454 522 34,000  Level Kansas City Center
09:29AM 36.9953 -97.8839 293° West 454 522 34,000  Level Kansas City Center
09:30AM 37.0442 -98.0281 293° West 453 521 34,000  Level Kansas City Center
09:31AM 37.0928 -98.1728 293° West 451 519 34,000  Level Kansas City Center
09:32AM 37.1431 -98.3183 293° West 451 519 34,000  Level Kansas City Center
09:33AM 37.1922 -98.4631 293° West 451 519 34,000  Level Kansas City Center
09:34AM 37.2392 -98.6064 292° West 448 516 34,000  Level Kansas City Center
09:35AM 37.2858 -98.7497 292° West 444 511 34,000  Level Kansas City Center
09:36AM 37.3331 -98.8942 292° West 445 512 34,000  Level Kansas City Center
09:37AM 37.3900 -99.0669 293° West 444 511 34,000  Level Kansas City Center
09:38AM 37.4369 -99.2117 292° West 445 512 34,000  Level Kansas City Center
09:39AM 37.4831 -99.3528 292° West 439 505 34,000  Level Kansas City Center
09:40AM 37.5314 -99.5011 292° West 440 506 34,000  Level Kansas City Center
09:41AM 37.5817 -99.6606 292° West 439 505 34,000  Level Kansas City Center
09:42AM 37.6272 -99.7961 293° West 439 505 34,000  Level Kansas City Center
09:43AM 37.6700 -99.9333 292° West 440 506 34,000  Level Kansas City Center
09:45AM 37.7206 -100.0906 292° West 436 502 34,000  Level Kansas City Center
09:46AM 37.7625 -100.2239 292° West 430 495 34,000  Level Kansas City Center
09:47AM 37.8119 -100.3822 292° West 435 501 34,000  Level Kansas City Center
09:48AM 37.8544 -100.5167 292° West 435 501 34,000  Level Kansas City Center
09:49AM 37.9025 -100.6736 291° West 433 498 34,000  Level Kansas City Center
09:50AM 37.9503 -100.8050 295° West 434 499 34,000  Level Kansas City Center
09:50AM 37.9917 -100.9131 296° West 433 498 34,000  Level Denver Center
09:51AM 38.0508 -101.0664 296° West 435 501 34,000  Level Denver Center
09:53AM 38.0994 -101.1975 295° West 434 499 34,000  Level Denver Center
09:54AM 38.1578 -101.3508 296° West 432 497 34,000  Level Denver Center
09:55AM 38.2103 -101.4800 297° West 432 497 34,000 -300 Level Denver Center
09:56AM 38.2725 -101.6031 303° West 432 497 33,500 -660 Descending Denver Center
09:57AM 38.3431 -101.7450 302° West 428 493 32,700 -780 Descending Denver Center
09:58AM 38.4042 -101.8669 303° West 427 491 32,000 -840 Descending Denver Center
09:59AM 38.4756 -102.0133 302° West 433 498 31,100 -840 Descending Denver Center
10:00AM 38.5378 -102.1378 303° West 436 502 30,400 -600 Descending Denver Center
10:01AM 38.5994 -102.2650 302° West 439 505 30,000 -240 Descending Denver Center
10:02AM 38.6733 -102.4147 302° West 445 512 30,000  Level Denver Center
10:03AM 38.7367 -102.5442 302° West 448 516 30,000  Level Denver Center
10:04AM 38.8100 -102.6944 302° West 446 513 30,000  Level Denver Center
10:05AM 38.8758 -102.8325 302° West 445 512 30,000  Level Denver Center
10:06AM 38.9408 -102.9700 301° West 446 513 30,000  Level Denver Center
10:07AM 39.0047 -103.1050 301° West 438 504 30,000 -540 Level Denver Center
10:08AM 39.0683 -103.2375 302° West 433 498 28,900 -1,680 Descending Denver Center
10:09AM 39.1292 -103.3667 301° West 421 484 26,600 -2,220 Descending Denver Center
10:10AM 39.1886 -103.4914 302° West 409 471 24,400 -2,100 Descending Denver Center
10:11AM 39.2456 -103.6128 301° West 394 453 22,300 -2,040 Descending Denver Center
10:12AM 39.3011 -103.7325 301° West 386 444 20,300 -1,860 Descending Denver Center
10:13AM 39.3503 -103.8400 301° West 354 407 18,500 -1,860 Descending Denver Center
10:14AM 39.4011 -103.9481 301° West 327 376 16,500 -1,740 Descending Denver Center
10:15AM 39.4494 -104.0281 308° West 278 320 15,000 -1,500 Descending Denver Center
10:16AM 39.5114 -104.1067 316° Northwest 291 335 13,400 -1,080 Descending Denver Center
10:17AM 39.5903 -104.1361 344° North 294 338 12,900 -960 Descending Denver Center
10:18AM 39.6708 -104.1686 343° North 302 348 11,500 -1,380 Descending Denver Center
10:19AM 39.7261 -104.2542 310° West 288 331 10,100 -1,260 Descending Denver Center
10:20AM 39.7753 -104.3361 308° West 287 330 8,700 -1,020 Descending Denver Center
10:21AM 39.8308 -104.4306 307° West 263 303 7,800 -780 Descending Denver Center
10:22AM 39.8703 -104.4969 308° West 237 273 7,100 -900 Descending Denver Center
10:23AM 39.8833 -104.5500 288° West 173 199 6,300 -1,200 Descending Denver TRACON